createdAt,value
2017-12-15T00:02:26.261Z,95.00
2017-12-15T00:04:53.772Z,95.20
2017-12-15T00:07:21.281Z,95.00
2017-12-15T00:09:49.184Z,94.80
2017-12-15T00:12:17.492Z,95.10
2017-12-15T00:14:45.009Z,95.00
2017-12-15T00:17:12.521Z,95.30
2017-12-15T00:19:40.053Z,95.30
2017-12-15T00:22:07.549Z,95.30
2017-12-15T00:24:35.061Z,95.30
2017-12-15T00:27:02.576Z,95.30
2017-12-15T00:29:30.068Z,95.10
2017-12-15T00:31:57.575Z,95.10
2017-12-15T00:34:25.088Z,94.70
2017-12-15T00:36:52.611Z,94.20
2017-12-15T00:39:20.125Z,93.70
2017-12-15T00:41:48.422Z,93.30
2017-12-15T00:44:15.932Z,93.30
2017-12-15T00:46:43.452Z,93.30
2017-12-15T00:49:10.964Z,93.40
2017-12-15T00:51:38.461Z,93.60
2017-12-15T00:54:06.736Z,93.40
2017-12-15T00:56:34.258Z,93.40
2017-12-15T00:59:01.789Z,93.50
2017-12-15T01:01:29.295Z,93.30
2017-12-15T01:03:57.588Z,93.80
2017-12-15T01:06:25.101Z,93.80
2017-12-15T01:08:52.616Z,93.80
2017-12-15T01:11:20.121Z,93.50
2017-12-15T01:13:47.638Z,93.40
2017-12-15T01:16:15.156Z,93.70
2017-12-15T01:18:42.652Z,92.50
2017-12-15T01:21:10.152Z,92.90
2017-12-15T01:23:38.065Z,92.90
2017-12-15T01:26:06.352Z,93.30
2017-12-15T01:28:33.852Z,93.30
2017-12-15T01:31:01.340Z,93.10
2017-12-15T01:33:28.857Z,93.30
2017-12-15T01:35:56.365Z,93.00
2017-12-15T01:38:24.628Z,93.50
2017-12-15T01:40:52.933Z,93.40
2017-12-15T01:43:21.196Z,93.40
2017-12-15T01:45:49.452Z,93.30
2017-12-15T01:48:17.749Z,92.90
2017-12-15T01:50:46.016Z,93.40
2017-12-15T01:53:13.524Z,93.40
2017-12-15T01:55:41.024Z,93.10
2017-12-15T01:58:08.544Z,93.10
2017-12-15T02:00:36.046Z,93.40
2017-12-15T02:03:03.550Z,93.10
2017-12-15T02:05:31.061Z,93.40
2017-12-15T02:07:58.573Z,93.60
2017-12-15T02:10:26.088Z,93.70
2017-12-15T02:12:54.374Z,93.90
2017-12-15T02:15:22.636Z,94.10
2017-12-15T02:17:50.980Z,94.20
2017-12-15T02:20:19.033Z,93.90
2017-12-15T02:22:46.613Z,93.90
2017-12-15T02:25:14.115Z,93.70
2017-12-15T02:27:42.386Z,93.70
2017-12-15T02:30:09.910Z,93.60
2017-12-15T02:32:37.467Z,93.90
2017-12-15T02:35:05.020Z,93.10
2017-12-15T02:37:32.537Z,93.40
2017-12-15T02:40:00.821Z,93.60
2017-12-15T02:42:29.082Z,93.60
2017-12-15T02:44:57.412Z,93.40
2017-12-15T02:47:24.912Z,93.30
2017-12-15T02:49:53.193Z,93.90
2017-12-15T02:52:20.721Z,93.90
2017-12-15T02:54:48.255Z,93.40
2017-12-15T02:57:15.781Z,93.20
2017-12-15T02:59:45.073Z,93.30
2017-12-15T03:02:13.337Z,94.00
2017-12-15T03:04:41.618Z,93.90
2017-12-15T03:07:09.912Z,93.80
2017-12-15T03:09:37.424Z,93.90
2017-12-15T03:12:04.924Z,93.90
2017-12-15T03:14:33.193Z,93.70
2017-12-15T03:17:01.485Z,93.90
2017-12-15T03:19:29.766Z,93.70
2017-12-15T03:21:58.013Z,94.00
2017-12-15T03:24:25.526Z,93.90
2017-12-15T03:26:53.012Z,94.10
2017-12-15T03:29:20.512Z,94.30
2017-12-15T03:31:48.790Z,94.40
2017-12-15T03:34:17.064Z,94.40
2017-12-15T03:36:44.952Z,94.30
2017-12-15T03:39:12.458Z,94.20
2017-12-15T03:41:39.976Z,94.20
2017-12-15T03:44:07.884Z,93.50
2017-12-15T03:46:35.397Z,93.70
2017-12-15T03:49:04.057Z,94.10
2017-12-15T03:51:31.956Z,93.40
2017-12-15T03:53:59.448Z,93.20
2017-12-15T03:56:26.960Z,93.10
2017-12-15T03:58:54.464Z,92.90
2017-12-15T04:01:21.968Z,92.80
2017-12-15T04:03:50.246Z,93.10
2017-12-15T04:06:18.521Z,93.10
2017-12-15T04:08:46.788Z,92.60
2017-12-15T04:11:15.048Z,93.10
2017-12-15T04:13:43.346Z,93.20
2017-12-15T04:16:11.620Z,92.90
2017-12-15T04:18:39.884Z,92.70
2017-12-15T04:21:07.380Z,92.70
2017-12-15T04:23:34.888Z,92.60
2017-12-15T04:26:02.386Z,92.90
2017-12-15T04:28:29.901Z,93.20
2017-12-15T04:30:57.792Z,93.20
2017-12-15T04:33:26.064Z,93.50
2017-12-15T04:35:53.577Z,93.40
2017-12-15T04:38:21.080Z,93.20
2017-12-15T04:40:48.576Z,93.40
2017-12-15T04:43:16.069Z,93.70
2017-12-15T04:45:43.577Z,92.90
2017-12-15T04:48:11.077Z,93.00
2017-12-15T04:50:38.580Z,93.00
2017-12-15T04:53:06.837Z,93.20
2017-12-15T04:55:34.752Z,92.80
2017-12-15T04:58:02.640Z,92.50
2017-12-15T05:00:30.132Z,92.50
2017-12-15T05:02:57.657Z,92.10
2017-12-15T05:05:25.149Z,92.00
2017-12-15T05:07:53.040Z,91.90
2017-12-15T05:10:21.316Z,91.80
2017-12-15T05:12:49.572Z,91.70
2017-12-15T05:15:17.074Z,91.60
2017-12-15T05:17:44.592Z,91.70
2017-12-15T05:20:12.092Z,91.50
2017-12-15T05:22:39.597Z,91.00
2017-12-15T05:25:07.110Z,91.10
2017-12-15T05:27:34.608Z,91.00
2017-12-15T05:30:02.125Z,90.40
2017-12-15T05:32:29.608Z,91.00
2017-12-15T05:34:57.889Z,90.90
2017-12-15T05:37:25.377Z,90.90
2017-12-15T05:39:52.898Z,90.50
2017-12-15T05:42:20.397Z,90.80
2017-12-15T05:44:47.896Z,90.90
2017-12-15T05:47:15.401Z,91.10
2017-12-15T05:49:42.913Z,91.20
2017-12-15T05:52:10.800Z,91.50
2017-12-15T05:54:38.316Z,91.50
2017-12-15T05:57:06.298Z,91.70
2017-12-15T05:59:34.652Z,92.00
2017-12-15T06:02:02.144Z,92.00
2017-12-15T06:04:29.648Z,91.90
2017-12-15T06:06:57.150Z,91.70
2017-12-15T06:09:24.665Z,91.80
2017-12-15T06:11:52.556Z,91.80
2017-12-15T06:14:20.821Z,92.20
2017-12-15T06:16:48.333Z,92.20
2017-12-15T06:19:15.828Z,91.80
2017-12-15T06:21:43.336Z,91.80
2017-12-15T06:24:10.834Z,91.70
2017-12-15T06:26:38.336Z,91.30
2017-12-15T06:29:06.600Z,91.50
2017-12-15T06:31:34.112Z,91.40
2017-12-15T06:34:01.608Z,91.30
2017-12-15T06:36:29.117Z,91.10
2017-12-15T06:38:56.624Z,91.40
2017-12-15T06:41:24.120Z,91.40
2017-12-15T06:43:51.638Z,91.50
2017-12-15T06:46:19.131Z,91.60
2017-12-15T06:48:46.629Z,91.80
2017-12-15T06:51:14.141Z,91.90
2017-12-15T06:53:42.405Z,92.20
2017-12-15T06:56:10.681Z,94.30
2017-12-15T06:58:38.952Z,93.50
2017-12-15T07:01:06.452Z,91.70
2017-12-15T07:03:34.356Z,91.40
2017-12-15T07:06:01.900Z,91.70
2017-12-15T07:08:29.396Z,92.20
2017-12-15T07:10:56.900Z,92.40
2017-12-15T07:13:24.404Z,92.10
2017-12-15T07:15:52.035Z,92.30
2017-12-15T07:18:20.281Z,92.40
2017-12-15T07:20:48.536Z,92.50
2017-12-15T07:23:16.049Z,92.30
2017-12-15T07:25:43.568Z,92.30
2017-12-15T07:28:11.829Z,92.40
2017-12-15T07:30:40.097Z,92.40
2017-12-15T07:33:07.608Z,92.40
2017-12-15T07:35:35.125Z,92.20
2017-12-15T07:38:03.400Z,92.50
2017-12-15T07:40:31.664Z,92.40
2017-12-15T07:42:59.164Z,92.40
2017-12-15T07:45:26.716Z,92.50
2017-12-15T07:47:54.582Z,92.50
2017-12-15T07:50:22.103Z,92.70
2017-12-15T07:52:50.396Z,92.20
2017-12-15T07:55:18.689Z,92.40
2017-12-15T07:57:46.953Z,92.00
2017-12-15T08:00:15.233Z,91.70
2017-12-15T08:02:43.500Z,91.50
2017-12-15T08:05:11.013Z,91.50
2017-12-15T08:07:38.512Z,91.50
2017-12-15T08:10:06.075Z,91.20
2017-12-15T08:12:33.597Z,91.00
2017-12-15T08:15:01.621Z,91.10
2017-12-15T08:17:29.528Z,91.10
2017-12-15T08:19:57.048Z,91.30
2017-12-15T08:22:25.312Z,91.40
2017-12-15T08:24:53.597Z,91.40
2017-12-15T08:27:21.872Z,91.00
2017-12-15T08:29:50.132Z,91.20
2017-12-15T08:32:17.640Z,91.20
2017-12-15T08:34:45.136Z,90.50
2017-12-15T08:37:12.640Z,90.80
2017-12-15T08:39:40.132Z,90.40
2017-12-15T08:42:07.644Z,90.50
2017-12-15T08:44:35.900Z,90.90
2017-12-15T08:47:03.807Z,90.60
2017-12-15T08:49:31.313Z,90.70
2017-12-15T08:51:58.808Z,90.50
2017-12-15T08:54:27.088Z,90.40
2017-12-15T08:56:54.590Z,90.60
2017-12-15T08:59:22.553Z,90.60
2017-12-15T09:01:50.731Z,90.30
2017-12-15T09:04:23.348Z,90.90
2017-12-15T09:06:52.172Z,91.50
2017-12-15T09:09:20.976Z,91.60
2017-12-15T09:11:48.548Z,91.70
2017-12-15T09:14:16.109Z,90.40
2017-12-15T09:16:44.037Z,91.20
2017-12-15T09:19:12.278Z,91.70
2017-12-15T09:21:39.788Z,91.30
2017-12-15T09:24:07.304Z,91.90
2017-12-15T09:26:34.803Z,92.30
2017-12-15T09:29:02.692Z,92.70
2017-12-15T09:31:30.193Z,91.80
2017-12-15T09:33:57.713Z,92.00
2017-12-15T09:36:25.257Z,92.20
2017-12-15T09:38:53.494Z,93.00
2017-12-15T09:41:21.773Z,93.20
2017-12-15T09:46:24.075Z,93.30
2017-12-15T09:48:52.349Z,93.20
2017-12-15T09:51:20.605Z,93.10
2017-12-15T09:53:48.105Z,92.70
2017-12-15T09:56:15.598Z,93.00
2017-12-15T09:58:43.125Z,93.00
2017-12-15T10:01:10.620Z,93.40
2017-12-15T10:03:38.112Z,93.40
2017-12-15T10:06:06.397Z,94.00
2017-12-15T10:08:33.892Z,93.40
2017-12-15T10:11:01.400Z,93.60
2017-12-15T10:13:29.675Z,93.30
2017-12-15T10:15:57.940Z,93.50
2017-12-15T10:18:25.448Z,93.40
2017-12-15T10:20:52.956Z,93.30
2017-12-15T10:23:20.453Z,93.30
2017-12-15T10:25:47.962Z,92.70
2017-12-15T10:28:15.456Z,92.90
2017-12-15T10:30:43.364Z,92.20
2017-12-15T10:33:10.869Z,92.40
2017-12-15T10:35:38.374Z,92.30
2017-12-15T10:38:05.868Z,92.50
2017-12-15T10:40:33.756Z,91.90
2017-12-15T10:43:02.032Z,92.20
2017-12-15T10:45:30.292Z,91.90
2017-12-15T10:47:57.812Z,91.90
2017-12-15T10:50:25.325Z,91.20
2017-12-15T10:52:53.585Z,91.70
2017-12-15T10:55:21.080Z,91.50
2017-12-15T10:57:48.587Z,91.80
2017-12-15T11:00:16.117Z,92.30
2017-12-15T11:02:43.616Z,92.40
2017-12-15T11:05:11.117Z,92.40
2017-12-15T11:07:38.633Z,92.50
2017-12-15T11:10:06.520Z,92.50
2017-12-15T11:12:34.811Z,92.20
2017-12-15T11:15:03.073Z,91.70
2017-12-15T11:17:31.341Z,92.40
2017-12-15T11:19:58.861Z,92.40
2017-12-15T11:22:26.352Z,91.10
2017-12-15T11:24:53.848Z,91.50
2017-12-15T11:27:21.355Z,91.80
2017-12-15T11:29:48.863Z,91.90
2017-12-15T11:32:16.769Z,92.30
2017-12-15T11:34:44.264Z,92.50
2017-12-15T11:37:11.937Z,92.40
2017-12-15T11:39:40.365Z,92.30
2017-12-15T11:42:07.840Z,92.30
2017-12-15T11:44:35.360Z,91.80
2017-12-15T11:47:02.852Z,92.10
2017-12-15T11:49:30.348Z,91.90
2017-12-15T11:51:58.640Z,92.50
2017-12-15T11:54:26.891Z,92.40
2017-12-15T11:56:54.406Z,92.00
2017-12-15T11:59:21.904Z,92.00
2017-12-15T12:01:49.426Z,92.40
2017-12-15T12:04:16.944Z,92.60
2017-12-15T12:06:45.209Z,92.40
2017-12-15T12:09:13.480Z,92.40
2017-12-15T12:11:40.976Z,92.30
2017-12-15T12:14:08.488Z,92.00
2017-12-15T12:16:35.984Z,92.20
2017-12-15T12:19:03.500Z,92.40
2017-12-15T12:21:31.012Z,92.00
2017-12-15T12:23:58.516Z,92.30
2017-12-15T12:26:26.028Z,92.10
2017-12-15T12:28:53.520Z,92.40
2017-12-15T12:31:21.428Z,92.30
2017-12-15T12:33:49.696Z,92.50
2017-12-15T12:36:17.188Z,92.50
2017-12-15T12:38:45.087Z,92.50
2017-12-15T12:41:12.624Z,92.70
2017-12-15T12:43:40.128Z,92.50
2017-12-15T12:46:07.641Z,92.60
2017-12-15T12:48:35.153Z,92.10
2017-12-15T12:51:02.648Z,92.30
2017-12-15T12:53:30.153Z,92.10
2017-12-15T12:55:57.656Z,92.30
2017-12-15T12:58:25.169Z,92.50
2017-12-15T13:00:53.063Z,92.50
2017-12-15T13:03:21.348Z,92.90
2017-12-15T13:05:49.617Z,92.70
2017-12-15T13:08:17.881Z,92.70
2017-12-15T13:10:45.383Z,92.70
2017-12-15T13:13:12.885Z,93.10
2017-12-15T13:15:40.393Z,93.10
2017-12-15T13:18:07.888Z,93.40
2017-12-15T13:20:35.405Z,92.70
2017-12-15T13:23:02.900Z,92.90
2017-12-15T13:25:30.396Z,92.70
2017-12-15T13:27:57.909Z,92.80
2017-12-15T13:30:25.411Z,92.40
2017-12-15T13:32:52.914Z,92.60
2017-12-15T13:35:20.420Z,92.70
2017-12-15T13:37:47.936Z,93.00
2017-12-15T13:40:15.430Z,92.80
2017-12-15T13:42:42.950Z,92.50
2017-12-15T13:45:10.432Z,92.70
2017-12-15T13:47:37.945Z,92.70
2017-12-15T13:50:05.849Z,92.80
2017-12-15T13:52:33.352Z,92.80
2017-12-15T13:55:02.300Z,93.00
2017-12-15T13:57:29.792Z,92.70
2017-12-15T13:59:57.288Z,93.00
2017-12-15T14:02:25.189Z,92.70
2017-12-15T14:04:52.696Z,93.00
2017-12-15T14:07:20.960Z,92.20
2017-12-15T14:09:48.470Z,92.00
2017-12-15T14:12:15.956Z,91.90
2017-12-15T14:14:43.482Z,92.10
2017-12-15T14:17:10.977Z,92.40
2017-12-15T14:19:38.480Z,92.50
2017-12-15T14:22:06.005Z,92.80
2017-12-15T14:24:33.511Z,92.40
2017-12-15T14:27:01.027Z,92.70
2017-12-15T14:29:28.536Z,92.90
2017-12-15T14:31:56.053Z,93.10
2017-12-15T14:34:23.679Z,92.50
2017-12-15T14:36:51.901Z,92.60
2017-12-15T14:39:20.245Z,92.60
2017-12-15T14:41:47.756Z,92.60
2017-12-15T14:44:15.253Z,91.80
2017-12-15T14:46:42.805Z,91.80
2017-12-15T14:49:10.323Z,92.00
2017-12-15T14:51:37.828Z,91.60
2017-12-15T14:54:05.316Z,91.80
2017-12-15T14:56:32.834Z,92.00
2017-12-15T14:59:00.356Z,92.10
2017-12-15T15:01:28.646Z,92.60
2017-12-15T15:03:56.173Z,92.60
2017-12-15T15:06:23.668Z,91.90
2017-12-15T15:08:51.160Z,92.20
2017-12-15T15:11:18.676Z,91.60
2017-12-15T15:13:46.165Z,91.70
2017-12-15T15:16:13.677Z,91.10
2017-12-15T15:18:41.953Z,91.20
2017-12-15T15:21:10.217Z,91.50
2017-12-15T15:23:37.724Z,91.40
2017-12-15T15:26:05.241Z,91.70
2017-12-15T15:28:33.500Z,92.40
2017-12-15T15:31:01.010Z,91.40
2017-12-15T15:33:29.289Z,91.70
2017-12-15T15:35:56.780Z,91.90
2017-12-15T15:38:24.305Z,91.80
2017-12-15T15:40:52.261Z,92.00
2017-12-15T15:43:19.825Z,93.20
2017-12-15T15:45:47.360Z,93.10
2017-12-15T15:48:15.640Z,93.20
2017-12-15T15:50:43.934Z,93.70
2017-12-15T15:53:12.199Z,93.70
2017-12-15T15:55:40.461Z,93.30
2017-12-15T15:58:08.388Z,92.90
2017-12-15T16:00:35.864Z,92.90
2017-12-15T16:03:03.402Z,93.10
2017-12-15T16:05:30.892Z,93.30
2017-12-15T16:07:58.404Z,92.00
2017-12-15T16:10:26.416Z,92.10
2017-12-15T16:12:53.952Z,91.60
2017-12-15T16:15:21.472Z,90.80
2017-12-15T16:17:49.737Z,90.80
2017-12-15T16:20:17.251Z,90.80
2017-12-15T16:22:44.785Z,90.60
2017-12-15T16:25:12.298Z,87.50
2017-12-15T16:27:40.596Z,90.20
2017-12-15T16:30:08.117Z,90.20
2017-12-15T16:32:35.633Z,87.00
2017-12-15T16:35:03.173Z,90.10
2017-12-15T16:37:30.692Z,90.10
2017-12-15T16:39:58.205Z,90.70
2017-12-15T16:42:25.748Z,91.50
2017-12-15T16:44:53.225Z,91.30
2017-12-15T16:47:20.757Z,91.60
2017-12-15T16:49:48.264Z,91.30
2017-12-15T16:52:15.777Z,91.60
2017-12-15T16:54:44.041Z,91.70
2017-12-15T16:57:11.561Z,91.70
2017-12-15T16:59:39.052Z,92.00
2017-12-15T17:02:06.548Z,91.40
2017-12-15T17:04:34.064Z,91.80
2017-12-15T17:07:01.558Z,91.90
2017-12-15T17:09:30.193Z,92.30
2017-12-15T17:11:57.688Z,92.30
2017-12-15T17:14:25.964Z,92.20
2017-12-15T17:16:54.233Z,93.00
2017-12-15T17:19:21.761Z,92.70
2017-12-15T17:21:49.292Z,93.30
2017-12-15T17:24:16.803Z,93.40
2017-12-15T17:26:44.301Z,93.10
2017-12-15T17:29:11.817Z,92.70
2017-12-15T17:31:39.358Z,92.90
2017-12-15T17:34:06.869Z,93.10
2017-12-15T17:36:35.146Z,92.60
2017-12-15T17:39:03.400Z,92.30
2017-12-15T17:41:30.922Z,92.20
2017-12-15T17:43:58.421Z,92.50
2017-12-15T17:46:25.913Z,92.80
2017-12-15T17:48:53.429Z,92.90
2017-12-15T17:51:20.935Z,93.00
2017-12-15T17:53:50.533Z,93.60
2017-12-15T17:56:18.060Z,93.60
2017-12-15T17:58:45.561Z,93.20
2017-12-15T18:01:13.069Z,93.60
2017-12-15T18:03:40.580Z,93.60
2017-12-15T18:06:08.072Z,93.30
2017-12-15T18:08:35.573Z,93.10
2017-12-15T18:11:03.853Z,93.40
2017-12-15T18:13:33.478Z,93.40
2017-12-15T18:16:02.930Z,92.60
2017-12-15T18:18:30.401Z,93.40
2017-12-15T18:20:58.076Z,93.30
2017-12-15T18:23:26.662Z,93.30
2017-12-15T18:25:54.213Z,93.40
2017-12-15T18:28:21.712Z,93.60
2017-12-15T18:30:49.209Z,92.70
2017-12-15T18:33:16.760Z,92.80
2017-12-15T18:35:44.314Z,93.10
2017-12-15T18:38:11.881Z,93.20
2017-12-15T18:40:39.379Z,93.10
2017-12-15T18:43:07.709Z,92.40
2017-12-15T18:45:35.265Z,92.40
2017-12-15T18:48:02.877Z,92.10
2017-12-15T18:50:30.332Z,92.50
2017-12-15T18:52:58.601Z,93.30
2017-12-15T18:55:26.103Z,93.30
2017-12-15T18:57:53.698Z,93.50
2017-12-15T19:00:21.192Z,93.20
2017-12-15T19:02:49.481Z,93.70
2017-12-15T19:05:16.987Z,93.70
2017-12-15T19:07:44.536Z,93.70
2017-12-15T19:10:12.036Z,93.60
2017-12-15T19:12:40.369Z,93.50
2017-12-15T19:15:07.890Z,93.50
2017-12-15T19:17:36.157Z,94.10
2017-12-15T19:20:04.417Z,94.10
2017-12-15T19:22:31.920Z,94.10
2017-12-15T19:24:59.488Z,94.10
2017-12-15T19:27:27.062Z,93.80
2017-12-15T19:29:54.620Z,93.70
2017-12-15T19:32:22.132Z,93.60
2017-12-15T19:34:50.408Z,93.60
2017-12-15T19:37:18.687Z,93.40
2017-12-15T19:39:46.965Z,93.30
2017-12-15T19:42:15.239Z,93.20
2017-12-15T19:44:43.504Z,93.40
2017-12-15T19:47:11.795Z,93.70
2017-12-15T19:49:40.112Z,93.80
2017-12-15T19:52:07.623Z,93.70
2017-12-15T19:54:35.904Z,93.60
2017-12-15T19:57:04.168Z,93.20
2017-12-15T19:59:31.701Z,93.20
2017-12-15T20:01:59.244Z,93.10
2017-12-15T20:04:26.764Z,93.10
2017-12-15T20:06:55.032Z,93.80
2017-12-15T20:09:23.304Z,93.50
2017-12-15T20:11:51.581Z,93.60
2017-12-15T20:14:20.356Z,93.70
2017-12-15T20:16:47.864Z,93.70
2017-12-15T20:19:15.423Z,93.00
2017-12-15T20:21:42.933Z,93.40
2017-12-15T20:24:12.001Z,93.10
2017-12-15T20:26:39.561Z,93.10
2017-12-15T20:29:07.156Z,93.20
2017-12-15T20:31:34.659Z,93.40
2017-12-15T20:34:02.164Z,93.90
2017-12-15T20:36:29.698Z,93.50
2017-12-15T20:38:57.260Z,93.70
2017-12-15T20:41:24.748Z,93.90
2017-12-15T20:43:52.282Z,93.80
2017-12-15T20:46:19.932Z,93.20
2017-12-15T20:48:48.165Z,93.90
2017-12-15T20:51:16.492Z,93.60
2017-12-15T20:53:44.146Z,93.50
2017-12-15T20:56:12.429Z,93.10
2017-12-15T20:58:39.985Z,93.00
2017-12-15T21:01:07.556Z,93.60
2017-12-15T21:03:35.101Z,93.00
2017-12-15T21:06:02.669Z,92.00
2017-12-15T21:08:30.225Z,92.30
2017-12-15T21:10:57.732Z,91.90
2017-12-15T21:13:26.064Z,92.70
2017-12-15T21:15:53.577Z,92.70
2017-12-15T21:18:22.004Z,92.20
2017-12-15T21:20:49.558Z,92.20
2017-12-15T21:23:17.121Z,92.20
2017-12-15T21:25:44.680Z,92.20
2017-12-15T21:28:12.188Z,92.70
2017-12-15T21:30:40.461Z,91.90
2017-12-15T21:33:07.951Z,91.90
2017-12-15T21:35:35.448Z,92.20
2017-12-15T21:38:02.957Z,92.30
2017-12-15T21:40:30.482Z,93.00
2017-12-15T21:42:58.001Z,92.80
2017-12-15T21:45:25.500Z,93.30
2017-12-15T21:47:52.983Z,93.00
2017-12-15T21:50:21.264Z,92.80
2017-12-15T21:52:48.861Z,92.70
2017-12-15T21:55:16.364Z,92.50
2017-12-15T21:57:43.867Z,92.40
2017-12-15T22:00:11.445Z,92.40
2017-12-15T22:02:38.940Z,92.50
2017-12-15T22:05:07.293Z,92.60
2017-12-15T22:07:34.842Z,92.50
2017-12-15T22:10:02.333Z,92.80
2017-12-15T22:12:29.854Z,92.60
2017-12-15T22:14:57.408Z,93.10
2017-12-15T22:17:24.908Z,93.20
2017-12-15T22:19:52.421Z,93.60
2017-12-15T22:22:19.912Z,93.20
2017-12-15T22:24:47.449Z,92.50
2017-12-15T22:27:15.009Z,92.30
2017-12-15T22:29:42.572Z,92.60
2017-12-15T22:32:10.074Z,92.60
2017-12-15T22:34:38.357Z,92.60
2017-12-15T22:37:06.612Z,92.50
2017-12-15T22:39:34.136Z,92.90
2017-12-15T22:42:01.650Z,93.60
2017-12-15T22:44:29.977Z,93.70
2017-12-15T22:46:57.537Z,93.30
2017-12-15T22:49:25.033Z,93.30
2017-12-15T22:51:53.368Z,92.80
2017-12-15T22:54:20.977Z,92.60
2017-12-15T22:56:49.408Z,93.00
2017-12-15T22:59:16.972Z,92.90
2017-12-15T23:01:44.535Z,93.10
2017-12-15T23:04:12.046Z,93.30
2017-12-15T23:06:40.308Z,93.60
2017-12-15T23:09:07.832Z,93.20
2017-12-15T23:11:35.339Z,93.30
2017-12-15T23:14:03.597Z,93.30
2017-12-15T23:16:31.104Z,93.40
2017-12-15T23:18:58.677Z,93.20
2017-12-15T23:21:26.244Z,93.50
2017-12-15T23:23:53.887Z,93.30
2017-12-15T23:26:21.379Z,93.60
2017-12-15T23:28:48.903Z,93.80
2017-12-15T23:31:16.402Z,94.00
2017-12-15T23:33:43.897Z,94.00
2017-12-15T23:36:11.410Z,93.90
2017-12-15T23:38:38.916Z,93.80
2017-12-15T23:41:06.425Z,94.00
2017-12-15T23:43:33.918Z,94.00
2017-12-15T23:46:02.193Z,94.00
2017-12-15T23:48:30.520Z,93.90
2017-12-15T23:50:58.019Z,93.80
2017-12-15T23:53:25.513Z,93.80
2017-12-15T23:55:59.028Z,93.60
2017-12-15T23:58:26.525Z,93.70
